EW6143 Weather Reports


time (UTC)temp
C
wind
direction
speed
KPH
gust
KPH
rain 1hr
cm
rain 24hr
cm
rain mn
cm
humidity
%
barometer
mb
20240420164515 11 223 11.3 22.5 0.00 1.70 1.70 89 1022.4
20240420163017 11 165 11.3 24.1 0.00 1.70 1.70 89 1021.3
20240420161510 11 194 9.7 19.3 0.03 1.70 1.70 89 1021.3
20240420160014 11 234 8.0 19.3 0.10 1.70 1.70 89 1021.5
20240420154515 11 182 12.9 24.1 0.13 1.70 1.70 89 1021.0
20240420153013 11 195 6.4 20.9 0.25 1.70 1.70 89 1021.7
20240420151517 11 238 12.9 24.1 0.36 1.68 1.68 89 1020.5
20240420150025 11 177 8.0 16.1 0.36 1.60 1.60 89 1021.2
20240420144522 11 215 6.4 32.2 0.51 1.57 1.57 89 1020.9
20240420143015 11 207 9.7 25.7 0.41 1.45 1.45 89 1021.1
20240420141525 11 196 12.9 33.8 0.33 1.30 1.30 89 1020.7
20240420140013 11 201 16.1 35.4 0.48 1.19 1.19 89 1020.5
20240420134514 12 256 11.3 41.8 0.58 1.07 1.07 89 1021.2
20240420133018 12 201 24.1 53.1 0.74 1.04 1.04 89 1018.6
20240420131518 12 196 22.5 45.1 0.79 0.94 0.94 88 1020.3
20240420130014 12 175 17.7 41.8 0.53 0.69 0.69 89 1021.6
20240420124529 12 150 17.7 35.4 0.33 0.48 0.48 88 1020.8
20240420123041 13 133 12.9 25.7 0.10 0.25 0.25 88 1020.3
20240420121517 13 177 11.3 19.3 0.05 0.10 0.10 88 1020.0
20240420120016 13 152 9.7 24.1 0.00 0.05 0.05 88 1019.5
20240420114518 13 142 9.7 19.3 0.03 0.05 0.05 88 1018.2
20240420113020 13 172 8.0 25.7 0.03 0.05 0.05 88 1018.2
20240420111513 13 220 8.0 22.5 0.03 0.05 0.05 87 1017.8
20240420110015 14 198 9.7 22.5 0.00 0.03 0.03 87 1018.1
20240420104523 14 215 11.3 22.5 0.03 0.03 0.03 87 1018.5
20240420103013 14 157 9.7 20.9 0.03 0.03 0.03 87 1018.7
20240420101513 14 227 6.4 20.9 0.03 0.03 0.03 87 1019.0
20240420100014 15 183 11.3 22.5 0.03 0.03 0.03 87 1018.8
20240420094515 15 198 8.0 20.9 0.00 0.00 0.00 88 1019.1
20240420093013 15 204 6.4 25.7 0.00 0.00 0.00 88 1018.9
20240420091515 15 198 11.3 22.5 0.00 0.00 0.00 89 1018.9
20240420090015 15 194 12.9 24.1 0.00 0.00 0.00 89 1019.2
20240420084522 15 196 11.3 24.1 0.00 0.00 0.00 89 1019.1
20240420083014 15 205 9.7 20.9 0.00 0.00 0.00 89 1019.3
20240420081514 15 184 8.0 17.7 0.00 0.00 0.00 89 1019.3
20240420080014 15 205 8.0 22.5 0.00 0.00 0.00 89 1019.3
20240420074531 15 199 11.3 20.9 0.00 0.00 0.00 89 1019.3
20240420073015 15 180 8.0 16.1 0.00 0.00 0.00 88 1019.3
20240420071514 15 157 6.4 16.1 0.00 0.00 0.00 88 1019.5
20240420070019 16 151 4.8 12.9 0.00 0.00 0.00 88 1019.6
20240420064519 16 155 4.8 22.5 0.00 0.00 0.00 87 1019.6
20240420063032 16 168 4.8 17.7 0.00 0.00 0.00 86 1019.5
20240420061515 16 184 8.0 16.1 0.00 0.00 0.00 85 1019.4
20240420060020 16 165 14.5 24.1 0.00 0.00 0.00 84 1019.4
20240420054515 16 152 11.3 19.3 0.00 0.00 0.00 82 1019.3
20240420053013 17 171 6.4 17.7 0.00 0.00 0.00 81 1019.3
20240420051513 17 169 9.7 22.5 0.00 0.00 0.00 81 1019.1
20240420050015 17 178 11.3 25.7 0.00 0.00 0.00 79 1018.9
20240420044517 17 167 11.3 20.9 0.00 0.00 0.00 78 1019.0
20240420043017 17 168 9.7 20.9 0.00 0.00 0.00 77 1018.8
20240420041515 17 191 9.7 24.1 0.00 0.00 0.00 76 1018.7
20240420040019 17 142 9.7 20.9 0.00 0.00 0.00 76 1018.9
20240420034514 17 175 12.9 22.5 0.00 0.00 0.00 75 1019.1
20240420033014 17 163 11.3 24.1 0.00 0.00 0.00 74 1019.3
20240420031522 17 144 9.7 24.1 0.00 0.00 0.00 73 1019.1
20240420030015 18 161 11.3 24.1 0.00 0.00 0.00 73 1018.9
20240420024512 18 103 6.4 16.1 0.00 0.00 0.00 73 1019.0
20240420023016 19 71 8.0 19.3 0.00 0.00 0.00 73 1018.2
20240420021531 19 192 4.8 14.5 0.00 0.00 0.00 75 1018.1
20240420020031 19 178 6.4 17.7 0.00 0.00 0.00 74 1017.8
20240420014515 19 145 8.0 16.1 0.00 0.00 0.00 74 1017.7
20240420013013 20 204 8.0 16.1 0.00 0.00 0.00 74 1017.6
20240420011517 20 163 8.0 16.1 0.00 0.00 0.00 73 1017.5
20240420010022 20 167 8.0 17.7 0.00 0.00 0.00 73 1017.4
20240420004513 20 171 4.8 12.9 0.00 0.00 0.00 72 1017.5
20240420003017 20 134 6.4 12.9 0.00 0.00 0.00 71 1017.6
20240420001517 20 183 4.8 14.5 0.00 0.00 0.00 71 1017.4
20240420000015 20 152 6.4 14.5 0.00 0.00 0.00 70 1017.5
20240419234515 20 70 4.8 12.9 0.00 0.00 0.00 69 1017.5
20240419233015 20 84 4.8 14.5 0.00 0.00 0.00 69 1017.4
20240419231514 20 167 6.4 12.9 0.00 0.00 0.00 69 1017.2
20240419230014 21 126 4.8 16.1 0.00 0.00 0.00 69 1017.3
20240419224515 21 100 1.6 11.3 0.00 0.00 0.00 68 1017.3
20240419223015 21 125 4.8 12.9 0.00 0.00 0.00 67 1017.3
20240419221516 21 130 4.8 12.9 0.00 0.00 0.00 65 1017.5
20240419220014 21 194 4.8 12.9 0.00 0.00 0.00 65 1017.5
20240419214515 21 98 3.2 17.7 0.00 0.00 0.00 65 1017.7
20240419213016 21 187 6.4 14.5 0.00 0.00 0.00 64 1017.5
20240419211518 21 103 8.0 19.3 0.00 0.00 0.00 64 1017.6
20240419210020 21 166 4.8 14.5 0.00 0.00 0.00 64 1017.8
20240419204518 21 157 4.8 12.9 0.00 0.00 0.00 64 1018.1
20240419203019 21 80 8.0 17.7 0.00 0.00 0.00 64 1018.4
20240419201514 21 90 1.6 12.9 0.00 0.00 0.00 63 1018.5
20240419200015 20 150 6.4 20.9 0.00 0.00 0.00 65 1018.5
20240419194520 20 200 6.4 14.5 0.00 0.00 0.00 65 1018.9
20240419193015 19 141 4.8 17.7 0.00 0.00 0.00 67 1019.2
20240419191518 19 159 11.3 17.7 0.00 0.00 0.00 66 1019.5
20240419190013 19 105 9.7 16.1 0.00 0.00 0.00 67 1019.4
20240419184515 19 78 4.8 17.7 0.00 0.00 0.00 66 1019.5
20240419183015 20 217 3.2 17.7 0.00 0.00 0.00 65 1019.7
20240419181516 18 38 4.8 14.5 0.00 0.00 0.00 66 1019.9
20240419180016 18 136 6.4 16.1 0.00 0.00 0.00 66 1020.2
20240419174520 18 116 6.4 16.1 0.00 0.00 0.00 67 1020.5
20240419173014 17 116 6.4 16.1 0.00 0.00 0.00 68 1020.6
20240419171526 17 103 6.4 14.5 0.00 0.00 0.00 70 1020.6
20240419170016 16 161 8.0 24.1 0.00 0.00 0.00 71 1020.5